Warsaw, Virginia
Current Conditions -  °F | °C
As of 2:55 AM on Wednesday 22 Oct 2014 (Local Time) from KXSA Reporting Station
Overcast Overcast  
Wind Chill: 54°   Ceiling: 2000
Heat Index: 54°   Visibility: 10mi
Dew Point: 49°   Wind: 3mph
Humidity: 84%   Direction: 300°WNW
Pressure: 29.86"   Gusts: NA
Location:  37.96°N, 76.76°W
Report Text: KXSA 220655Z AUTO 30003KT 10SM SCT013 BKN020 OVC120 12/09 A2986 RMK AO2 LTG DSNT SE T01200093
Loading
Personal Weather Stations






























Interactive Weather Map
Tropical Storm Tracking
New forecast layout! Learn more

10-Day Weather Forecast

Advertisements
Track Severe Weather on mobile